sensor_id;sensor_type;location;lat;lon;timestamp;temperature;humidity
16160;DHT22;8185;57.818;15.224;2022-07-17T00:00:04;11.40;99.90
16160;DHT22;8185;57.818;15.224;2022-07-17T00:02:32;11.40;99.90
16160;DHT22;8185;57.818;15.224;2022-07-17T00:04:59;11.50;99.90
16160;DHT22;8185;57.818;15.224;2022-07-17T00:07:27;11.50;99.90
16160;DHT22;8185;57.818;15.224;2022-07-17T00:09:54;11.50;99.90
16160;DHT22;8185;57.818;15.224;2022-07-17T00:12:21;11.40;99.90
16160;DHT22;8185;57.818;15.224;2022-07-17T00:14:50;11.30;99.90
16160;DHT22;8185;57.818;15.224;2022-07-17T00:17:18;11.40;99.90
16160;DHT22;8185;57.818;15.224;2022-07-17T00:19:47;11.40;99.90
16160;DHT22;8185;57.818;15.224;2022-07-17T00:22:14;11.50;99.90
16160;DHT22;8185;57.818;15.224;2022-07-17T00:24:41;11.60;99.90
16160;DHT22;8185;57.818;15.224;2022-07-17T00:27:09;11.50;99.90
16160;DHT22;8185;57.818;15.224;2022-07-17T00:29:36;11.50;99.90
16160;DHT22;8185;57.818;15.224;2022-07-17T00:32:05;11.50;99.90
16160;DHT22;8185;57.818;15.224;2022-07-17T00:34:33;11.50;99.90
16160;DHT22;8185;57.818;15.224;2022-07-17T00:37:00;11.50;99.90
16160;DHT22;8185;57.818;15.224;2022-07-17T00:39:27;11.60;99.90
16160;DHT22;8185;57.818;15.224;2022-07-17T00:41:54;11.60;99.90
16160;DHT22;8185;57.818;15.224;2022-07-17T00:44:26;11.60;99.90
16160;DHT22;8185;57.818;15.224;2022-07-17T00:46:54;11.60;99.90
16160;DHT22;8185;57.818;15.224;2022-07-17T00:49:23;11.60;99.90
16160;DHT22;8185;57.818;15.224;2022-07-17T00:51:50;11.60;99.90
16160;DHT22;8185;57.818;15.224;2022-07-17T00:54:17;11.60;99.90
16160;DHT22;8185;57.818;15.224;2022-07-17T00:56:46;11.70;99.90
16160;DHT22;8185;57.818;15.224;2022-07-17T00:59:15;11.80;99.90
16160;DHT22;8185;57.818;15.224;2022-07-17T01:01:42;11.80;99.90
16160;DHT22;8185;57.818;15.224;2022-07-17T01:04:10;11.80;99.90
16160;DHT22;8185;57.818;15.224;2022-07-17T01:06:38;11.80;99.90
16160;DHT22;8185;57.818;15.224;2022-07-17T01:09:10;11.80;99.90
16160;DHT22;8185;57.818;15.224;2022-07-17T01:11:37;11.70;99.90
16160;DHT22;8185;57.818;15.224;2022-07-17T01:14:04;11.60;99.90
16160;DHT22;8185;57.818;15.224;2022-07-17T01:16:32;11.60;99.90
16160;DHT22;8185;57.818;15.224;2022-07-17T01:19:01;11.50;99.90
16160;DHT22;8185;57.818;15.224;2022-07-17T01:21:38;11.40;99.90
16160;DHT22;8185;57.818;15.224;2022-07-17T01:24:06;11.30;99.90
16160;DHT22;8185;57.818;15.224;2022-07-17T01:26:33;11.20;99.90
16160;DHT22;8185;57.818;15.224;2022-07-17T01:29:01;11.00;99.90
16160;DHT22;8185;57.818;15.224;2022-07-17T01:31:28;10.90;99.90
16160;DHT22;8185;57.818;15.224;2022-07-17T01:33:56;10.90;99.90
16160;DHT22;8185;57.818;15.224;2022-07-17T01:36:24;10.90;99.90
16160;DHT22;8185;57.818;15.224;2022-07-17T01:38:53;10.80;99.90
16160;DHT22;8185;57.818;15.224;2022-07-17T01:41:22;10.60;99.90
16160;DHT22;8185;57.818;15.224;2022-07-17T01:43:49;10.30;99.90
16160;DHT22;8185;57.818;15.224;2022-07-17T01:46:17;10.10;99.90
16160;DHT22;8185;57.818;15.224;2022-07-17T01:48:44;9.90;99.90
16160;DHT22;8185;57.818;15.224;2022-07-17T01:51:11;9.80;99.90
16160;DHT22;8185;57.818;15.224;2022-07-17T01:53:38;9.60;99.90
16160;DHT22;8185;57.818;15.224;2022-07-17T01:56:07;9.50;99.90
16160;DHT22;8185;57.818;15.224;2022-07-17T01:58:35;9.40;99.90
16160;DHT22;8185;57.818;15.224;2022-07-17T02:01:02;9.20;99.90
16160;DHT22;8185;57.818;15.224;2022-07-17T02:03:29;9.20;99.90
16160;DHT22;8185;57.818;15.224;2022-07-17T02:05:56;9.10;99.90
16160;DHT22;8185;57.818;15.224;2022-07-17T02:08:23;9.10;99.90
16160;DHT22;8185;57.818;15.224;2022-07-17T02:10:51;9.00;99.90
16160;DHT22;8185;57.818;15.224;2022-07-17T02:13:19;8.90;99.90
16160;DHT22;8185;57.818;15.224;2022-07-17T02:15:47;8.90;99.90
16160;DHT22;8185;57.818;15.224;2022-07-17T02:18:14;9.00;99.90
16160;DHT22;8185;57.818;15.224;2022-07-17T02:20:41;9.00;99.90
16160;DHT22;8185;57.818;15.224;2022-07-17T02:23:12;9.00;99.90
16160;DHT22;8185;57.818;15.224;2022-07-17T02:25:39;8.90;99.90
16160;DHT22;8185;57.818;15.224;2022-07-17T02:28:07;9.00;99.90
16160;DHT22;8185;57.818;15.224;2022-07-17T02:30:36;8.90;99.90
16160;DHT22;8185;57.818;15.224;2022-07-17T02:33:03;8.90;99.90
16160;DHT22;8185;57.818;15.224;2022-07-17T02:35:30;8.90;99.90
16160;DHT22;8185;57.818;15.224;2022-07-17T02:37:57;9.00;99.90
16160;DHT22;8185;57.818;15.224;2022-07-17T02:40:25;9.10;99.90
16160;DHT22;8185;57.818;15.224;2022-07-17T02:42:52;9.20;99.90
16160;DHT22;8185;57.818;15.224;2022-07-17T02:45:20;9.30;99.90
16160;DHT22;8185;57.818;15.224;2022-07-17T02:47:51;9.30;99.90
16160;DHT22;8185;57.818;15.224;2022-07-17T02:50:19;9.30;99.90
16160;DHT22;8185;57.818;15.224;2022-07-17T02:52:46;9.30;99.90
16160;DHT22;8185;57.818;15.224;2022-07-17T02:55:15;9.30;99.90
16160;DHT22;8185;57.818;15.224;2022-07-17T02:57:44;9.20;99.90
16160;DHT22;8185;57.818;15.224;2022-07-17T03:00:14;9.20;99.90
16160;DHT22;8185;57.818;15.224;2022-07-17T03:02:42;9.20;99.90
16160;DHT22;8185;57.818;15.224;2022-07-17T03:05:11;9.20;99.90
16160;DHT22;8185;57.818;15.224;2022-07-17T03:07:39;9.10;99.90
16160;DHT22;8185;57.818;15.224;2022-07-17T03:10:08;9.10;99.90
16160;DHT22;8185;57.818;15.224;2022-07-17T03:12:35;9.10;99.90
16160;DHT22;8185;57.818;15.224;2022-07-17T03:15:03;9.10;99.90
16160;DHT22;8185;57.818;15.224;2022-07-17T03:17:30;9.10;99.90
16160;DHT22;8185;57.818;15.224;2022-07-17T03:19:57;9.10;99.90
16160;DHT22;8185;57.818;15.224;2022-07-17T03:22:26;9.10;99.90
16160;DHT22;8185;57.818;15.224;2022-07-17T03:24:53;9.10;99.90
16160;DHT22;8185;57.818;15.224;2022-07-17T03:27:21;9.20;99.90
16160;DHT22;8185;57.818;15.224;2022-07-17T03:29:48;9.30;99.90
16160;DHT22;8185;57.818;15.224;2022-07-17T03:32:15;9.40;99.90
16160;DHT22;8185;57.818;15.224;2022-07-17T03:34:42;9.40;99.90
16160;DHT22;8185;57.818;15.224;2022-07-17T03:37:10;9.50;99.90
16160;DHT22;8185;57.818;15.224;2022-07-17T03:39:39;9.60;99.90
16160;DHT22;8185;57.818;15.224;2022-07-17T03:42:06;9.50;99.90
16160;DHT22;8185;57.818;15.224;2022-07-17T03:44:33;9.40;99.90
16160;DHT22;8185;57.818;15.224;2022-07-17T03:47:00;9.40;99.90
16160;DHT22;8185;57.818;15.224;2022-07-17T03:49:28;9.40;99.90
16160;DHT22;8185;57.818;15.224;2022-07-17T03:51:55;9.40;99.90
16160;DHT22;8185;57.818;15.224;2022-07-17T03:54:22;9.50;99.90
16160;DHT22;8185;57.818;15.224;2022-07-17T03:56:51;9.70;99.90
16160;DHT22;8185;57.818;15.224;2022-07-17T03:59:18;9.80;99.90
16160;DHT22;8185;57.818;15.224;2022-07-17T04:01:46;10.00;99.90
16160;DHT22;8185;57.818;15.224;2022-07-17T04:04:13;10.10;99.90
16160;DHT22;8185;57.818;15.224;2022-07-17T04:06:41;10.30;99.90
16160;DHT22;8185;57.818;15.224;2022-07-17T04:09:08;10.40;99.90
16160;DHT22;8185;57.818;15.224;2022-07-17T04:11:35;10.40;99.90
16160;DHT22;8185;57.818;15.224;2022-07-17T04:14:04;10.50;99.90
16160;DHT22;8185;57.818;15.224;2022-07-17T04:16:31;10.60;99.90
16160;DHT22;8185;57.818;15.224;2022-07-17T04:18:58;10.70;99.90
16160;DHT22;8185;57.818;15.224;2022-07-17T04:21:26;10.70;99.90
16160;DHT22;8185;57.818;15.224;2022-07-17T04:23:53;10.80;99.90
16160;DHT22;8185;57.818;15.224;2022-07-17T04:26:20;10.90;99.90
16160;DHT22;8185;57.818;15.224;2022-07-17T04:28:47;10.90;99.90
16160;DHT22;8185;57.818;15.224;2022-07-17T04:31:16;11.00;99.90
16160;DHT22;8185;57.818;15.224;2022-07-17T04:33:43;11.00;99.90
16160;DHT22;8185;57.818;15.224;2022-07-17T04:36:11;11.10;99.90
16160;DHT22;8185;57.818;15.224;2022-07-17T04:38:38;11.20;99.90
16160;DHT22;8185;57.818;15.224;2022-07-17T04:41:05;11.30;99.90
16160;DHT22;8185;57.818;15.224;2022-07-17T04:43:33;11.30;99.90
16160;DHT22;8185;57.818;15.224;2022-07-17T04:46:00;11.50;99.90
16160;DHT22;8185;57.818;15.224;2022-07-17T04:48:28;11.60;99.90
16160;DHT22;8185;57.818;15.224;2022-07-17T04:50:56;11.60;99.90
16160;DHT22;8185;57.818;15.224;2022-07-17T04:53:23;11.70;99.90
16160;DHT22;8185;57.818;15.224;2022-07-17T04:55:50;11.80;99.90
16160;DHT22;8185;57.818;15.224;2022-07-17T04:58:18;11.90;99.90
16160;DHT22;8185;57.818;15.224;2022-07-17T05:00:46;12.00;99.90
16160;DHT22;8185;57.818;15.224;2022-07-17T05:03:13;12.10;99.90
16160;DHT22;8185;57.818;15.224;2022-07-17T05:05:42;12.20;99.90
16160;DHT22;8185;57.818;15.224;2022-07-17T05:08:09;12.30;99.90
16160;DHT22;8185;57.818;15.224;2022-07-17T05:10:37;12.40;99.90
16160;DHT22;8185;57.818;15.224;2022-07-17T05:13:04;12.60;99.90
16160;DHT22;8185;57.818;15.224;2022-07-17T05:15:31;12.70;99.90
16160;DHT22;8185;57.818;15.224;2022-07-17T05:17:59;12.90;99.90
16160;DHT22;8185;57.818;15.224;2022-07-17T05:20:26;13.00;99.90
16160;DHT22;8185;57.818;15.224;2022-07-17T05:22:55;13.20;99.90
16160;DHT22;8185;57.818;15.224;2022-07-17T05:25:22;13.30;99.90
16160;DHT22;8185;57.818;15.224;2022-07-17T05:27:50;13.50;99.90
16160;DHT22;8185;57.818;15.224;2022-07-17T05:30:17;13.60;99.90
16160;DHT22;8185;57.818;15.224;2022-07-17T05:32:44;13.70;99.90
16160;DHT22;8185;57.818;15.224;2022-07-17T05:35:11;13.80;99.90
16160;DHT22;8185;57.818;15.224;2022-07-17T05:37:38;14.00;99.90
16160;DHT22;8185;57.818;15.224;2022-07-17T05:40:08;14.10;99.90
16160;DHT22;8185;57.818;15.224;2022-07-17T05:42:36;14.30;99.90
16160;DHT22;8185;57.818;15.224;2022-07-17T05:45:03;14.30;99.90
16160;DHT22;8185;57.818;15.224;2022-07-17T05:47:31;14.40;99.90
16160;DHT22;8185;57.818;15.224;2022-07-17T05:49:58;14.60;99.90
16160;DHT22;8185;57.818;15.224;2022-07-17T05:52:26;14.60;99.90
16160;DHT22;8185;57.818;15.224;2022-07-17T05:54:53;14.70;99.90
16160;DHT22;8185;57.818;15.224;2022-07-17T05:57:22;14.80;99.90
16160;DHT22;8185;57.818;15.224;2022-07-17T05:59:49;14.70;99.90
16160;DHT22;8185;57.818;15.224;2022-07-17T06:02:16;14.70;99.90
16160;DHT22;8185;57.818;15.224;2022-07-17T06:04:43;14.80;99.90
16160;DHT22;8185;57.818;15.224;2022-07-17T06:07:10;14.90;99.90
16160;DHT22;8185;57.818;15.224;2022-07-17T06:09:38;15.20;99.90
16160;DHT22;8185;57.818;15.224;2022-07-17T06:12:05;15.30;99.90
16160;DHT22;8185;57.818;15.224;2022-07-17T06:14:34;15.40;99.90
16160;DHT22;8185;57.818;15.224;2022-07-17T06:17:01;15.30;99.90
16160;DHT22;8185;57.818;15.224;2022-07-17T06:19:28;15.40;99.90
16160;DHT22;8185;57.818;15.224;2022-07-17T06:21:56;15.40;99.90
16160;DHT22;8185;57.818;15.224;2022-07-17T06:24:23;15.60;99.90
16160;DHT22;8185;57.818;15.224;2022-07-17T06:26:50;15.70;99.90
16160;DHT22;8185;57.818;15.224;2022-07-17T06:29:18;15.70;99.90
16160;DHT22;8185;57.818;15.224;2022-07-17T06:31:46;15.90;99.90
16160;DHT22;8185;57.818;15.224;2022-07-17T06:34:13;15.90;99.90
16160;DHT22;8185;57.818;15.224;2022-07-17T06:36:41;15.90;99.90
16160;DHT22;8185;57.818;15.224;2022-07-17T06:39:08;16.00;99.90
16160;DHT22;8185;57.818;15.224;2022-07-17T06:41:35;16.20;99.90
16160;DHT22;8185;57.818;15.224;2022-07-17T06:44:03;16.00;99.90
16160;DHT22;8185;57.818;15.224;2022-07-17T06:46:30;16.20;99.90
16160;DHT22;8185;57.818;15.224;2022-07-17T06:48:59;16.20;99.90
16160;DHT22;8185;57.818;15.224;2022-07-17T06:51:26;16.20;99.90
16160;DHT22;8185;57.818;15.224;2022-07-17T06:53:53;16.60;99.90
16160;DHT22;8185;57.818;15.224;2022-07-17T06:56:20;16.50;99.90
16160;DHT22;8185;57.818;15.224;2022-07-17T06:58:48;16.60;99.90
16160;DHT22;8185;57.818;15.224;2022-07-17T07:01:15;16.70;99.90
16160;DHT22;8185;57.818;15.224;2022-07-17T07:03:43;16.80;99.90
16160;DHT22;8185;57.818;15.224;2022-07-17T07:06:11;17.00;99.90
16160;DHT22;8185;57.818;15.224;2022-07-17T07:08:39;17.10;99.90
16160;DHT22;8185;57.818;15.224;2022-07-17T07:11:06;17.30;99.90
16160;DHT22;8185;57.818;15.224;2022-07-17T07:13:34;17.40;99.90
16160;DHT22;8185;57.818;15.224;2022-07-17T07:16:01;17.30;99.90
16160;DHT22;8185;57.818;15.224;2022-07-17T07:18:28;17.40;99.90
16160;DHT22;8185;57.818;15.224;2022-07-17T07:20:56;17.40;99.90
16160;DHT22;8185;57.818;15.224;2022-07-17T07:23:24;17.50;99.90
16160;DHT22;8185;57.818;15.224;2022-07-17T07:25:52;17.60;99.90
16160;DHT22;8185;57.818;15.224;2022-07-17T07:28:19;17.50;99.90
16160;DHT22;8185;57.818;15.224;2022-07-17T07:30:46;17.60;99.90
16160;DHT22;8185;57.818;15.224;2022-07-17T07:33:14;17.60;99.90
16160;DHT22;8185;57.818;15.224;2022-07-17T07:35:42;17.70;99.90
16160;DHT22;8185;57.818;15.224;2022-07-17T07:38:09;17.80;99.90
16160;DHT22;8185;57.818;15.224;2022-07-17T07:40:38;18.10;99.90
16160;DHT22;8185;57.818;15.224;2022-07-17T07:43:05;18.10;99.90
16160;DHT22;8185;57.818;15.224;2022-07-17T07:45:32;18.10;99.90
16160;DHT22;8185;57.818;15.224;2022-07-17T07:48:00;18.20;99.90
16160;DHT22;8185;57.818;15.224;2022-07-17T07:50:27;18.50;99.90
16160;DHT22;8185;57.818;15.224;2022-07-17T07:52:55;18.40;99.90
16160;DHT22;8185;57.818;15.224;2022-07-17T07:55:22;18.30;99.90
16160;DHT22;8185;57.818;15.224;2022-07-17T07:58:01;18.10;99.90
16160;DHT22;8185;57.818;15.224;2022-07-17T08:00:29;18.30;99.90
16160;DHT22;8185;57.818;15.224;2022-07-17T08:02:56;18.50;99.90
16160;DHT22;8185;57.818;15.224;2022-07-17T08:05:23;18.60;97.90
16160;DHT22;8185;57.818;15.224;2022-07-17T08:07:50;18.40;96.80
16160;DHT22;8185;57.818;15.224;2022-07-17T08:10:18;18.30;95.70
16160;DHT22;8185;57.818;15.224;2022-07-17T08:12:45;18.20;95.90
16160;DHT22;8185;57.818;15.224;2022-07-17T08:15:15;18.20;96.00
16160;DHT22;8185;57.818;15.224;2022-07-17T08:17:43;18.30;96.60
16160;DHT22;8185;57.818;15.224;2022-07-17T08:20:11;18.50;97.40
16160;DHT22;8185;57.818;15.224;2022-07-17T08:22:39;18.40;97.30
16160;DHT22;8185;57.818;15.224;2022-07-17T08:25:07;18.20;97.50
16160;DHT22;8185;57.818;15.224;2022-07-17T08:27:35;18.30;97.90
16160;DHT22;8185;57.818;15.224;2022-07-17T08:30:04;18.30;98.00
16160;DHT22;8185;57.818;15.224;2022-07-17T08:32:33;18.80;98.40
16160;DHT22;8185;57.818;15.224;2022-07-17T08:35:00;18.80;97.90
16160;DHT22;8185;57.818;15.224;2022-07-17T08:37:27;19.30;98.10
16160;DHT22;8185;57.818;15.224;2022-07-17T08:39:55;19.50;97.80
16160;DHT22;8185;57.818;15.224;2022-07-17T08:42:23;19.10;96.90
16160;DHT22;8185;57.818;15.224;2022-07-17T08:44:57;19.00;97.70
16160;DHT22;8185;57.818;15.224;2022-07-17T08:47:25;19.00;98.10
16160;DHT22;8185;57.818;15.224;2022-07-17T08:49:54;18.80;98.80
16160;DHT22;8185;57.818;15.224;2022-07-17T08:52:22;19.00;98.30
16160;DHT22;8185;57.818;15.224;2022-07-17T08:54:49;18.90;98.60
16160;DHT22;8185;57.818;15.224;2022-07-17T08:57:16;18.90;98.80
16160;DHT22;8185;57.818;15.224;2022-07-17T08:59:47;18.50;98.50
16160;DHT22;8185;57.818;15.224;2022-07-17T09:02:14;18.70;98.70
16160;DHT22;8185;57.818;15.224;2022-07-17T09:04:42;18.70;98.00
16160;DHT22;8185;57.818;15.224;2022-07-17T09:07:10;18.20;98.40
16160;DHT22;8185;57.818;15.224;2022-07-17T09:09:38;18.30;98.60
16160;DHT22;8185;57.818;15.224;2022-07-17T09:12:16;18.50;99.80
16160;DHT22;8185;57.818;15.224;2022-07-17T09:14:43;18.60;99.20
16160;DHT22;8185;57.818;15.224;2022-07-17T09:17:11;18.70;99.00
16160;DHT22;8185;57.818;15.224;2022-07-17T09:19:42;18.80;99.40
16160;DHT22;8185;57.818;15.224;2022-07-17T09:22:14;18.60;99.80
16160;DHT22;8185;57.818;15.224;2022-07-17T09:24:44;18.50;99.80
16160;DHT22;8185;57.818;15.224;2022-07-17T09:27:13;18.40;99.90
16160;DHT22;8185;57.818;15.224;2022-07-17T09:29:54;18.50;99.90
16160;DHT22;8185;57.818;15.224;2022-07-17T09:32:23;18.60;99.90
16160;DHT22;8185;57.818;15.224;2022-07-17T09:34:52;18.60;99.90
16160;DHT22;8185;57.818;15.224;2022-07-17T09:37:23;18.50;99.90
16160;DHT22;8185;57.818;15.224;2022-07-17T09:39:50;18.60;99.90
16160;DHT22;8185;57.818;15.224;2022-07-17T09:42:24;19.00;99.90
16160;DHT22;8185;57.818;15.224;2022-07-17T09:45:05;19.20;99.90
16160;DHT22;8185;57.818;15.224;2022-07-17T09:47:34;19.60;99.90
16160;DHT22;8185;57.818;15.224;2022-07-17T09:50:04;19.60;99.10
16160;DHT22;8185;57.818;15.224;2022-07-17T09:52:35;19.60;99.20
16160;DHT22;8185;57.818;15.224;2022-07-17T09:55:05;19.50;99.90
16160;DHT22;8185;57.818;15.224;2022-07-17T09:57:34;19.70;99.50
16160;DHT22;8185;57.818;15.224;2022-07-17T10:00:05;19.50;99.30
16160;DHT22;8185;57.818;15.224;2022-07-17T10:02:33;19.40;98.30
16160;DHT22;8185;57.818;15.224;2022-07-17T10:05:01;19.40;98.70
16160;DHT22;8185;57.818;15.224;2022-07-17T10:07:28;19.60;98.20
16160;DHT22;8185;57.818;15.224;2022-07-17T10:09:58;19.70;98.10
16160;DHT22;8185;57.818;15.224;2022-07-17T10:12:25;20.10;98.00
16160;DHT22;8185;57.818;15.224;2022-07-17T10:14:53;20.30;96.40
16160;DHT22;8185;57.818;15.224;2022-07-17T10:17:21;19.90;95.30
16160;DHT22;8185;57.818;15.224;2022-07-17T10:19:50;19.90;95.90
16160;DHT22;8185;57.818;15.224;2022-07-17T10:22:20;19.70;96.20
16160;DHT22;8185;57.818;15.224;2022-07-17T10:24:50;19.70;97.00
16160;DHT22;8185;57.818;15.224;2022-07-17T10:27:21;19.90;97.40
16160;DHT22;8185;57.818;15.224;2022-07-17T10:30:00;19.80;96.30
16160;DHT22;8185;57.818;15.224;2022-07-17T10:32:28;19.80;96.90
16160;DHT22;8185;57.818;15.224;2022-07-17T10:34:59;19.90;97.20
16160;DHT22;8185;57.818;15.224;2022-07-17T10:37:30;20.20;97.00
16160;DHT22;8185;57.818;15.224;2022-07-17T10:40:05;20.30;96.90
16160;DHT22;8185;57.818;15.224;2022-07-17T10:42:46;20.40;96.50
16160;DHT22;8185;57.818;15.224;2022-07-17T10:45:15;20.50;96.40
16160;DHT22;8185;57.818;15.224;2022-07-17T10:47:45;20.20;96.30
16160;DHT22;8185;57.818;15.224;2022-07-17T10:50:13;20.10;96.00
16160;DHT22;8185;57.818;15.224;2022-07-17T10:52:40;19.90;96.20
16160;DHT22;8185;57.818;15.224;2022-07-17T10:55:18;19.80;96.50
16160;DHT22;8185;57.818;15.224;2022-07-17T10:57:48;20.00;96.10
16160;DHT22;8185;57.818;15.224;2022-07-17T11:00:16;20.10;97.20
16160;DHT22;8185;57.818;15.224;2022-07-17T11:02:44;20.10;96.20
16160;DHT22;8185;57.818;15.224;2022-07-17T11:05:13;19.90;95.50
16160;DHT22;8185;57.818;15.224;2022-07-17T11:07:54;19.70;95.90
16160;DHT22;8185;57.818;15.224;2022-07-17T11:10:22;19.50;95.60
16160;DHT22;8185;57.818;15.224;2022-07-17T11:12:52;19.40;96.30
16160;DHT22;8185;57.818;15.224;2022-07-17T11:15:20;19.60;96.30
16160;DHT22;8185;57.818;15.224;2022-07-17T11:17:48;20.10;96.20
16160;DHT22;8185;57.818;15.224;2022-07-17T11:20:16;20.50;95.30
16160;DHT22;8185;57.818;15.224;2022-07-17T11:22:44;20.40;94.90
16160;DHT22;8185;57.818;15.224;2022-07-17T11:25:12;20.40;95.90
16160;DHT22;8185;57.818;15.224;2022-07-17T11:27:39;20.30;95.40
16160;DHT22;8185;57.818;15.224;2022-07-17T11:30:12;20.50;94.60
16160;DHT22;8185;57.818;15.224;2022-07-17T11:32:42;21.10;94.10
16160;DHT22;8185;57.818;15.224;2022-07-17T11:35:17;21.60;92.80
16160;DHT22;8185;57.818;15.224;2022-07-17T11:37:45;21.50;91.50
16160;DHT22;8185;57.818;15.224;2022-07-17T11:40:14;21.30;91.70
16160;DHT22;8185;57.818;15.224;2022-07-17T11:42:42;21.20;92.90
16160;DHT22;8185;57.818;15.224;2022-07-17T11:45:12;21.50;92.80
16160;DHT22;8185;57.818;15.224;2022-07-17T11:47:41;22.10;91.30
16160;DHT22;8185;57.818;15.224;2022-07-17T11:50:10;21.60;91.90
16160;DHT22;8185;57.818;15.224;2022-07-17T11:52:43;21.10;90.30
16160;DHT22;8185;57.818;15.224;2022-07-17T11:55:11;21.50;91.70
16160;DHT22;8185;57.818;15.224;2022-07-17T11:57:43;21.60;91.30
16160;DHT22;8185;57.818;15.224;2022-07-17T12:00:14;21.40;92.40
16160;DHT22;8185;57.818;15.224;2022-07-17T12:02:42;22.10;92.80
16160;DHT22;8185;57.818;15.224;2022-07-17T12:05:10;22.10;88.40
16160;DHT22;8185;57.818;15.224;2022-07-17T12:07:42;23.20;87.90
16160;DHT22;8185;57.818;15.224;2022-07-17T12:10:14;23.50;86.90
16160;DHT22;8185;57.818;15.224;2022-07-17T12:12:53;23.70;83.30
16160;DHT22;8185;57.818;15.224;2022-07-17T12:15:34;23.00;84.50
16160;DHT22;8185;57.818;15.224;2022-07-17T12:18:02;23.20;83.50
16160;DHT22;8185;57.818;15.224;2022-07-17T12:20:42;22.30;88.00
16160;DHT22;8185;57.818;15.224;2022-07-17T12:23:25;22.90;87.70
16160;DHT22;8185;57.818;15.224;2022-07-17T12:26:03;23.10;85.70
16160;DHT22;8185;57.818;15.224;2022-07-17T12:28:31;23.60;82.90
16160;DHT22;8185;57.818;15.224;2022-07-17T12:31:00;22.90;83.80
16160;DHT22;8185;57.818;15.224;2022-07-17T12:33:27;22.80;86.50
16160;DHT22;8185;57.818;15.224;2022-07-17T12:35:54;23.20;85.80
16160;DHT22;8185;57.818;15.224;2022-07-17T12:38:21;23.50;84.00
16160;DHT22;8185;57.818;15.224;2022-07-17T12:40:49;23.10;83.80
16160;DHT22;8185;57.818;15.224;2022-07-17T12:43:16;23.30;83.20
16160;DHT22;8185;57.818;15.224;2022-07-17T12:45:44;23.10;84.20
16160;DHT22;8185;57.818;15.224;2022-07-17T12:48:13;23.20;85.00
16160;DHT22;8185;57.818;15.224;2022-07-17T12:50:41;22.90;85.40
16160;DHT22;8185;57.818;15.224;2022-07-17T12:53:09;22.20;87.90
16160;DHT22;8185;57.818;15.224;2022-07-17T12:55:37;21.70;89.70
16160;DHT22;8185;57.818;15.224;2022-07-17T12:58:05;21.40;90.30
16160;DHT22;8185;57.818;15.224;2022-07-17T13:00:32;20.80;91.70
16160;DHT22;8185;57.818;15.224;2022-07-17T13:03:01;20.30;92.50
16160;DHT22;8185;57.818;15.224;2022-07-17T13:05:30;20.10;93.70
16160;DHT22;8185;57.818;15.224;2022-07-17T13:07:57;20.10;94.30
16160;DHT22;8185;57.818;15.224;2022-07-17T13:10:25;19.90;93.80
16160;DHT22;8185;57.818;15.224;2022-07-17T13:12:52;20.00;95.50
16160;DHT22;8185;57.818;15.224;2022-07-17T13:15:19;20.10;94.50
16160;DHT22;8185;57.818;15.224;2022-07-17T13:17:47;20.20;94.00
16160;DHT22;8185;57.818;15.224;2022-07-17T13:20:14;20.20;93.50
16160;DHT22;8185;57.818;15.224;2022-07-17T13:22:43;20.20;93.40
16160;DHT22;8185;57.818;15.224;2022-07-17T13:25:10;20.20;93.30
16160;DHT22;8185;57.818;15.224;2022-07-17T13:27:37;20.50;93.30
16160;DHT22;8185;57.818;15.224;2022-07-17T13:30:06;21.10;93.70
16160;DHT22;8185;57.818;15.224;2022-07-17T13:32:33;22.00;92.10
16160;DHT22;8185;57.818;15.224;2022-07-17T13:35:01;22.40;90.60
16160;DHT22;8185;57.818;15.224;2022-07-17T13:37:28;21.50;90.30
16160;DHT22;8185;57.818;15.224;2022-07-17T13:39:57;20.90;91.70
16160;DHT22;8185;57.818;15.224;2022-07-17T13:42:24;20.60;91.10
16160;DHT22;8185;57.818;15.224;2022-07-17T13:44:52;20.40;90.50
16160;DHT22;8185;57.818;15.224;2022-07-17T13:47:19;20.20;91.10
16160;DHT22;8185;57.818;15.224;2022-07-17T13:49:46;20.00;91.70
16160;DHT22;8185;57.818;15.224;2022-07-17T13:52:13;19.90;91.80
16160;DHT22;8185;57.818;15.224;2022-07-17T13:54:41;19.90;92.90
16160;DHT22;8185;57.818;15.224;2022-07-17T13:57:10;19.90;92.50
16160;DHT22;8185;57.818;15.224;2022-07-17T13:59:37;19.90;93.50
16160;DHT22;8185;57.818;15.224;2022-07-17T14:02:04;20.00;93.20
16160;DHT22;8185;57.818;15.224;2022-07-17T14:04:33;20.10;92.80
16160;DHT22;8185;57.818;15.224;2022-07-17T14:07:00;20.60;92.30
16160;DHT22;8185;57.818;15.224;2022-07-17T14:09:27;22.30;90.20
16160;DHT22;8185;57.818;15.224;2022-07-17T14:11:55;22.40;88.50
16160;DHT22;8185;57.818;15.224;2022-07-17T14:14:23;21.40;90.20
16160;DHT22;8185;57.818;15.224;2022-07-17T14:16:51;21.20;92.00
16160;DHT22;8185;57.818;15.224;2022-07-17T14:19:19;21.80;92.00
16160;DHT22;8185;57.818;15.224;2022-07-17T14:21:46;23.70;89.80
16160;DHT22;8185;57.818;15.224;2022-07-17T14:24:13;24.10;87.30
16160;DHT22;8185;57.818;15.224;2022-07-17T14:26:41;24.20;86.70
16160;DHT22;8185;57.818;15.224;2022-07-17T14:29:10;24.60;85.50
16160;DHT22;8185;57.818;15.224;2022-07-17T14:31:38;23.40;87.10
16160;DHT22;8185;57.818;15.224;2022-07-17T14:34:06;22.50;90.90
16160;DHT22;8185;57.818;15.224;2022-07-17T14:36:33;21.40;91.30
16160;DHT22;8185;57.818;15.224;2022-07-17T14:39:00;20.90;92.30
16160;DHT22;8185;57.818;15.224;2022-07-17T14:41:28;20.50;92.80
16160;DHT22;8185;57.818;15.224;2022-07-17T14:43:55;20.40;93.30
16160;DHT22;8185;57.818;15.224;2022-07-17T14:46:23;20.20;94.40
16160;DHT22;8185;57.818;15.224;2022-07-17T14:48:52;20.80;94.60
16160;DHT22;8185;57.818;15.224;2022-07-17T14:51:19;21.70;93.70
16160;DHT22;8185;57.818;15.224;2022-07-17T14:53:46;22.80;92.60
16160;DHT22;8185;57.818;15.224;2022-07-17T14:56:13;23.20;91.80
16160;DHT22;8185;57.818;15.224;2022-07-17T14:58:40;23.00;90.80
16160;DHT22;8185;57.818;15.224;2022-07-17T15:01:08;21.80;92.10
16160;DHT22;8185;57.818;15.224;2022-07-17T15:03:35;21.30;93.40
16160;DHT22;8185;57.818;15.224;2022-07-17T15:06:04;21.20;93.90
16160;DHT22;8185;57.818;15.224;2022-07-17T15:08:32;21.00;94.50
16160;DHT22;8185;57.818;15.224;2022-07-17T15:10:59;22.10;93.80
16160;DHT22;8185;57.818;15.224;2022-07-17T15:13:26;23.00;92.60
16160;DHT22;8185;57.818;15.224;2022-07-17T15:15:53;23.40;91.40
16160;DHT22;8185;57.818;15.224;2022-07-17T15:18:21;23.00;91.60
16160;DHT22;8185;57.818;15.224;2022-07-17T15:20:48;22.20;91.70
16160;DHT22;8185;57.818;15.224;2022-07-17T15:23:17;21.80;93.00
16160;DHT22;8185;57.818;15.224;2022-07-17T15:25:44;21.60;93.60
16160;DHT22;8185;57.818;15.224;2022-07-17T15:28:11;21.30;94.40
16160;DHT22;8185;57.818;15.224;2022-07-17T15:30:39;21.00;94.80
16160;DHT22;8185;57.818;15.224;2022-07-17T15:33:06;20.80;94.80
16160;DHT22;8185;57.818;15.224;2022-07-17T15:35:33;20.60;94.50
16160;DHT22;8185;57.818;15.224;2022-07-17T15:38:00;20.30;94.60